Time;durP1;ratioP1;P1;durP2;ratioP2;P2;SDS_P1;SDS_P2;PMS_P1;PMS_P2;Temp;Humidity;BMP_temperature;BMP_pressure;BME280_temperature;BME280_humidity;BME280_pressure;Samples;Min_cycle;Max_cycle;Signal;HPM_P1;HPM_P2
2021/09/05 00:00:28;;;;;;;3.33;2.33;;;7.30;93.70;;;;;;5107230;28;20012;-77
2021/09/05 00:02:53;;;;;;;2.95;1.95;;;7.40;93.70;;;;;;5105309;28;20016;-77
2021/09/05 00:05:19;;;;;;;3.05;2.40;;;7.40;93.40;;;;;;5097628;28;20396;-77
2021/09/05 00:07:46;;;;;;;3.58;2.22;;;7.40;93.10;;;;;;5107880;28;20034;-76
2021/09/05 00:10:12;;;;;;;3.13;2.50;;;7.40;93.10;;;;;;5101802;28;20040;-77
2021/09/05 00:12:38;;;;;;;3.53;2.08;;;7.40;93.10;;;;;;5106424;28;20068;-76
2021/09/05 00:15:09;;;;;;;2.08;1.67;;;7.40;93.10;;;;;;5100826;28;20031;-77
2021/09/05 00:17:36;;;;;;;2.00;1.80;;;7.40;93.20;;;;;;5106045;28;20146;-77
2021/09/05 00:20:03;;;;;;;3.05;2.28;;;7.40;93.30;;;;;;5100761;28;20013;-76
2021/09/05 00:22:29;;;;;;;3.17;2.42;;;7.50;93.30;;;;;;5103357;28;20388;-76
2021/09/05 00:24:55;;;;;;;3.58;2.20;;;7.40;93.30;;;;;;5102185;28;20031;-77
2021/09/05 00:27:23;;;;;;;4.82;2.47;;;7.50;92.90;;;;;;5101232;28;20025;-77
2021/09/05 00:29:49;;;;;;;2.58;2.05;;;7.50;92.90;;;;;;5103645;28;20103;-78
2021/09/05 00:32:15;;;;;;;3.60;2.47;;;7.50;92.90;;;;;;5096909;28;20031;-77
2021/09/05 00:34:41;;;;;;;3.30;1.83;;;7.50;92.80;;;;;;5092794;28;20028;-77
2021/09/05 00:37:06;;;;;;;2.10;1.90;;;7.50;92.80;;;;;;5093011;28;20024;-76
2021/09/05 00:39:32;;;;;;;2.20;1.65;;;7.50;92.60;;;;;;5092458;28;20031;-76
2021/09/05 00:41:59;;;;;;;3.25;1.85;;;7.50;92.50;;;;;;5092659;28;20024;-77
2021/09/05 00:44:25;;;;;;;2.13;1.80;;;7.50;92.50;;;;;;5091259;28;20524;-78
2021/09/05 00:46:51;;;;;;;3.63;2.50;;;7.40;92.60;;;;;;5092654;28;20054;-77
2021/09/05 00:49:17;;;;;;;4.28;2.03;;;7.50;92.70;;;;;;5091263;28;20055;-76
2021/09/05 00:51:44;;;;;;;2.35;1.85;;;7.50;92.60;;;;;;5091122;28;20506;-77
2021/09/05 00:54:11;;;;;;;3.90;2.72;;;7.50;92.50;;;;;;5092626;28;20082;-78
2021/09/05 00:56:39;;;;;;;2.95;2.22;;;7.50;92.50;;;;;;5092417;28;20069;-76
2021/09/05 00:59:07;;;;;;;4.88;2.28;;;7.50;92.50;;;;;;5092666;28;20019;-77
2021/09/05 01:01:40;;;;;;;3.15;1.88;;;7.50;92.30;;;;;;5092650;28;20054;-77
2021/09/05 01:04:06;;;;;;;2.72;2.10;;;7.50;92.40;;;;;;5079486;28;20117;-76
2021/09/05 01:06:33;;;;;;;4.70;2.10;;;7.50;92.40;;;;;;5092724;28;20415;-77
2021/09/05 01:09:01;;;;;;;3.85;1.98;;;7.50;92.30;;;;;;5092310;28;20012;-76
2021/09/05 01:11:27;;;;;;;3.38;2.30;;;7.50;92.30;;;;;;5092915;28;20521;-77
2021/09/05 01:13:53;;;;;;;3.72;2.25;;;7.50;92.40;;;;;;5102198;28;20015;-76
2021/09/05 01:16:33;;;;;;;5.20;2.40;;;7.50;92.50;;;;;;5108754;28;20111;-76
2021/09/05 01:19:06;;;;;;;4.55;2.17;;;7.60;92.50;;;;;;5096543;28;20039;-76
2021/09/05 01:21:33;;;;;;;2.58;1.85;;;7.60;92.60;;;;;;5092327;28;20016;-76
2021/09/05 01:24:00;;;;;;;2.55;1.58;;;7.60;92.50;;;;;;5092272;28;20028;-76
2021/09/05 01:26:28;;;;;;;2.10;1.70;;;7.60;92.30;;;;;;5090440;28;20016;-76
2021/09/05 01:28:54;;;;;;;4.35;2.13;;;7.60;92.20;;;;;;5092234;28;20263;-78
2021/09/05 01:31:22;;;;;;;3.22;2.08;;;7.60;92.10;;;;;;5092167;28;20048;-76
2021/09/05 01:33:48;;;;;;;3.50;1.60;;;7.50;92.00;;;;;;5092635;28;20020;-77
2021/09/05 01:36:17;;;;;;;1.77;1.50;;;7.50;91.90;;;;;;5092325;28;20023;-76
2021/09/05 01:38:44;;;;;;;1.63;1.52;;;7.50;91.90;;;;;;5092277;28;20031;-78
2021/09/05 01:41:10;;;;;;;3.00;2.10;;;7.50;92.00;;;;;;5092244;28;20115;-76
2021/09/05 01:43:39;;;;;;;4.72;2.25;;;7.40;92.10;;;;;;5092322;28;20377;-76
2021/09/05 01:46:05;;;;;;;4.90;1.85;;;7.40;92.10;;;;;;5090684;28;20051;-76
2021/09/05 01:48:30;;;;;;;2.10;1.90;;;7.40;92.10;;;;;;5092033;28;20466;-76
2021/09/05 01:50:58;;;;;;;3.10;2.22;;;7.40;92.10;;;;;;5092075;28;20105;-76
2021/09/05 01:53:24;;;;;;;2.92;2.47;;;7.50;92.20;;;;;;5091719;28;20062;-77
2021/09/05 01:55:49;;;;;;;2.22;1.98;;;7.50;92.20;;;;;;5092055;28;20595;-76
2021/09/05 01:58:15;;;;;;;3.05;2.33;;;7.40;92.30;;;;;;5095045;28;20051;-76
2021/09/05 02:00:41;;;;;;;2.25;2.00;;;7.40;92.40;;;;;;5095608;28;20035;-76
2021/09/05 02:03:07;;;;;;;3.03;1.83;;;7.40;92.50;;;;;;5095640;28;20430;-76
2021/09/05 02:05:33;;;;;;;3.60;2.08;;;7.40;92.40;;;;;;5095708;28;20020;-77
2021/09/05 02:08:00;;;;;;;2.20;1.75;;;7.50;92.40;;;;;;5095629;28;20396;-77
2021/09/05 02:10:26;;;;;;;2.22;1.73;;;7.40;92.10;;;;;;5095249;28;20393;-75
2021/09/05 02:12:52;;;;;;;2.75;2.10;;;7.40;91.90;;;;;;5094268;28;20020;-78
2021/09/05 02:15:18;;;;;;;3.90;1.70;;;7.40;91.90;;;;;;5095421;28;20031;-77
2021/09/05 02:17:44;;;;;;;4.45;1.92;;;7.40;91.90;;;;;;5095541;28;20020;-77
2021/09/05 02:20:10;;;;;;;4.05;1.63;;;7.40;91.90;;;;;;5095319;28;20416;-79
2021/09/05 02:22:36;;;;;;;4.25;1.63;;;7.40;92.00;;;;;;5095509;28;20058;-77
2021/09/05 02:25:03;;;;;;;2.65;2.00;;;7.40;91.80;;;;;;5095272;28;20024;-80
2021/09/05 02:27:28;;;;;;;2.20;1.42;;;7.40;91.70;;;;;;5095244;28;20016;-78
2021/09/05 02:29:54;;;;;;;4.82;1.50;;;7.30;91.60;;;;;;5095117;28;20028;-77
2021/09/05 02:32:20;;;;;;;2.47;1.73;;;7.30;91.60;;;;;;5095124;28;20023;-77
2021/09/05 02:34:46;;;;;;;1.85;1.50;;;7.30;91.60;;;;;;5095229;28;20027;-78
2021/09/05 02:37:11;;;;;;;4.65;2.10;;;7.30;91.70;;;;;;5095299;28;20105;-77
2021/09/05 02:39:37;;;;;;;1.88;1.70;;;7.40;91.80;;;;;;5095089;28;20024;-78
2021/09/05 02:42:03;;;;;;;1.58;1.45;;;7.40;91.80;;;;;;5095068;28;20024;-80
2021/09/05 02:44:29;;;;;;;2.65;1.75;;;7.40;91.80;;;;;;5094968;28;20053;-78
2021/09/05 02:46:55;;;;;;;3.97;1.50;;;7.40;91.60;;;;;;5095056;28;20116;-78
2021/09/05 02:49:21;;;;;;;1.65;1.25;;;7.50;91.60;;;;;;5094843;28;20038;-77
2021/09/05 02:51:46;;;;;;;2.95;1.50;;;7.40;91.30;;;;;;5095030;28;20035;-78
2021/09/05 02:54:12;;;;;;;1.40;1.20;;;7.40;90.90;;;;;;5094917;28;20081;-78
2021/09/05 02:56:38;;;;;;;1.30;1.20;;;7.40;90.70;;;;;;5095113;28;20024;-77
2021/09/05 02:59:04;;;;;;;2.05;1.48;;;7.30;90.50;;;;;;5094709;28;20542;-75
2021/09/05 03:01:30;;;;;;;2.20;1.45;;;7.30;90.70;;;;;;5094454;28;20059;-77
2021/09/05 03:03:55;;;;;;;2.22;1.70;;;7.40;90.80;;;;;;5094669;28;20564;-76
2021/09/05 03:06:21;;;;;;;4.45;1.75;;;7.40;90.90;;;;;;5108852;28;20032;-76
2021/09/05 03:08:47;;;;;;;2.88;1.70;;;7.40;91.00;;;;;;5093070;28;20110;-76
2021/09/05 03:11:13;;;;;;;4.28;2.08;;;7.40;91.20;;;;;;5094200;28;20051;-78
2021/09/05 03:13:38;;;;;;;2.13;1.50;;;7.50;91.40;;;;;;5094763;28;20375;-77
2021/09/05 03:16:04;;;;;;;1.80;1.50;;;7.60;91.50;;;;;;5095495;28;20171;-77
2021/09/05 03:18:31;;;;;;;7.13;1.75;;;7.70;91.40;;;;;;5095384;28;20016;-77
2021/09/05 03:20:57;;;;;;;2.38;1.80;;;7.70;91.40;;;;;;5095871;28;20020;-76
2021/09/05 03:23:23;;;;;;;2.65;1.67;;;7.70;91.40;;;;;;5093361;28;20390;-79
2021/09/05 03:25:49;;;;;;;2.58;1.67;;;7.70;91.30;;;;;;5094286;28;20024;-76
2021/09/05 03:28:15;;;;;;;2.03;1.58;;;7.70;91.30;;;;;;5094028;28;20465;-76
2021/09/05 03:30:41;;;;;;;2.10;1.50;;;7.70;91.30;;;;;;5094097;28;20111;-77
2021/09/05 03:33:06;;;;;;;2.85;1.70;;;7.60;91.30;;;;;;5094082;28;20020;-77
2021/09/05 03:35:32;;;;;;;2.28;1.52;;;7.70;91.50;;;;;;5094108;28;20023;-77
2021/09/05 03:37:58;;;;;;;2.80;1.80;;;7.70;91.50;;;;;;5093367;28;20024;-76
2021/09/05 03:40:24;;;;;;;1.95;1.75;;;7.70;91.50;;;;;;5094075;28;20434;-79
2021/09/05 03:42:50;;;;;;;2.40;1.85;;;7.70;91.40;;;;;;5093973;28;20020;-77
2021/09/05 03:45:15;;;;;;;3.67;1.75;;;7.70;91.40;;;;;;5094151;28;20023;-76
2021/09/05 03:47:41;;;;;;;2.95;1.90;;;7.70;91.30;;;;;;5093689;28;20835;-74
2021/09/05 03:50:07;;;;;;;3.67;1.85;;;7.80;91.60;;;;;;5093605;28;20500;-75
2021/09/05 03:52:33;;;;;;;3.45;2.20;;;7.80;91.50;;;;;;5093527;28;20431;-76
2021/09/05 03:55:00;;;;;;;2.10;1.50;;;7.80;91.30;;;;;;5091256;28;20089;-76
2021/09/05 03:57:26;;;;;;;3.80;1.77;;;7.80;91.40;;;;;;5093413;28;20020;-75
2021/09/05 03:59:52;;;;;;;2.45;1.80;;;7.80;91.30;;;;;;5093139;28;20541;-76
2021/09/05 04:02:17;;;;;;;2.50;1.58;;;7.90;91.30;;;;;;5093438;28;20587;-76
2021/09/05 04:04:43;;;;;;;1.42;1.33;;;7.90;91.20;;;;;;5093356;28;20016;-79
2021/09/05 04:07:11;;;;;;;6.00;1.48;;;8.00;91.00;;;;;;5093628;28;20036;-76
2021/09/05 04:12:21;;;;;;;1.85;1.20;;;8.00;90.60;;;;;;5093290;28;20454;-76
2021/09/05 04:14:47;;;;;;;2.85;1.48;;;8.00;90.60;;;;;;5093357;28;20099;-78
2021/09/05 04:17:13;;;;;;;1.73;1.40;;;7.90;90.70;;;;;;5093408;28;20027;-77
2021/09/05 04:19:39;;;;;;;3.72;1.55;;;7.90;90.40;;;;;;5092643;28;20039;-77
2021/09/05 04:22:05;;;;;;;2.08;1.30;;;7.90;90.30;;;;;;5092719;28;20099;-78
2021/09/05 04:24:31;;;;;;;3.10;1.42;;;7.90;90.20;;;;;;5093077;28;20103;-78
2021/09/05 04:26:57;;;;;;;4.38;1.35;;;7.90;90.30;;;;;;5092769;28;20027;-79
2021/09/05 04:29:22;;;;;;;2.90;1.48;;;8.00;90.30;;;;;;5092822;28;20016;-77
2021/09/05 04:31:48;;;;;;;2.70;1.23;;;8.10;90.20;;;;;;5092507;28;20082;-77
2021/09/05 04:34:14;;;;;;;2.22;1.33;;;8.10;89.90;;;;;;5092334;28;20492;-76
2021/09/05 04:36:40;;;;;;;2.47;1.42;;;8.30;89.90;;;;;;5092814;28;20028;-78
2021/09/05 04:39:06;;;;;;;1.55;1.10;;;8.60;89.40;;;;;;5092631;28;20028;-78
2021/09/05 04:41:32;;;;;;;2.45;1.33;;;8.80;88.30;;;;;;5092840;28;20028;-77
2021/09/05 04:43:58;;;;;;;2.47;1.45;;;8.90;87.00;;;;;;5092814;28;20051;-78
2021/09/05 04:46:24;;;;;;;3.85;1.17;;;8.80;86.90;;;;;;5092481;28;20477;-77
2021/09/05 04:48:50;;;;;;;3.88;1.23;;;9.20;87.20;;;;;;5091419;28;20030;-78
2021/09/05 04:51:16;;;;;;;2.85;1.48;;;9.60;84.40;;;;;;5092473;28;20396;-77
2021/09/05 04:53:41;;;;;;;2.92;1.40;;;10.00;83.00;;;;;;5092384;28;20043;-79
2021/09/05 04:56:07;;;;;;;1.30;1.20;;;10.10;81.70;;;;;;5092378;28;20508;-77
2021/09/05 04:58:36;;;;;;;2.10;1.10;;;10.10;81.50;;;;;;5092680;28;20028;-77
2021/09/05 05:01:01;;;;;;;2.42;1.65;;;9.90;81.20;;;;;;5090537;28;20520;-78
2021/09/05 05:03:27;;;;;;;1.15;1.00;;;9.80;81.40;;;;;;5091217;28;20024;-77
2021/09/05 05:05:53;;;;;;;2.03;1.83;;;9.90;81.10;;;;;;5091317;28;20078;-77
2021/09/05 05:08:19;;;;;;;1.20;1.00;;;10.00;81.10;;;;;;5092092;28;20115;-78
2021/09/05 05:10:45;;;;;;;3.30;1.50;;;10.00;80.60;;;;;;5091665;28;20056;-77
2021/09/05 05:13:11;;;;;;;1.77;0.90;;;10.00;80.20;;;;;;5090892;28;20020;-77
2021/09/05 05:15:37;;;;;;;1.90;1.10;;;9.90;79.60;;;;;;5092200;28;20400;-79
2021/09/05 05:18:03;;;;;;;2.13;1.17;;;9.80;79.40;;;;;;5092321;28;20028;-77
2021/09/05 05:20:29;;;;;;;1.77;1.20;;;9.70;79.30;;;;;;5093497;28;20028;-77
2021/09/05 05:22:56;;;;;;;1.23;1.00;;;9.60;80.00;;;;;;5092603;28;20389;-76
2021/09/05 05:25:21;;;;;;;1.73;1.20;;;9.30;79.80;;;;;;5092738;28;20049;-77
2021/09/05 05:27:47;;;;;;;1.38;0.93;;;9.10;80.40;;;;;;5092987;28;20435;-77
2021/09/05 05:30:13;;;;;;;1.55;1.00;;;9.00;81.10;;;;;;5092364;28;20029;-78
2021/09/05 05:32:40;;;;;;;1.23;1.08;;;8.90;81.50;;;;;;5094790;28;20021;-76
2021/09/05 05:35:06;;;;;;;1.45;1.10;;;9.00;81.70;;;;;;5096294;28;20457;-76
2021/09/05 05:37:32;;;;;;;1.58;1.38;;;9.20;81.60;;;;;;5096655;28;20020;-77
2021/09/05 05:39:58;;;;;;;2.22;1.13;;;9.20;80.80;;;;;;5095965;28;20119;-77
2021/09/05 05:42:24;;;;;;;1.75;1.20;;;9.30;80.40;;;;;;5095178;28;20039;-76
2021/09/05 05:44:50;;;;;;;1.85;1.17;;;9.20;80.70;;;;;;5096372;28;20450;-76
2021/09/05 05:47:16;;;;;;;1.65;1.25;;;9.10;81.60;;;;;;5096213;28;20099;-78
2021/09/05 05:49:46;;;;;;;1.67;1.40;;;9.20;81.60;;;;;;5096204;28;20101;-78
2021/09/05 05:52:12;;;;;;;4.10;1.33;;;9.20;81.50;;;;;;5096051;28;20537;-79
2021/09/05 05:54:38;;;;;;;2.03;1.35;;;9.20;81.60;;;;;;5096107;28;20044;-78
2021/09/05 05:57:04;;;;;;;1.88;1.30;;;9.20;82.00;;;;;;5095651;28;20171;-79
2021/09/05 05:59:30;;;;;;;2.45;1.30;;;9.10;82.80;;;;;;5096087;28;20090;-77
2021/09/05 06:01:56;;;;;;;2.30;1.23;;;9.10;82.90;;;;;;5091321;28;20468;-77
2021/09/05 06:04:22;;;;;;;1.60;0.98;;;9.30;82.70;;;;;;5096060;28;20077;-80
2021/09/05 06:06:48;;;;;;;2.95;1.50;;;9.60;82.60;;;;;;5095846;28;20028;-78
2021/09/05 06:09:15;;;;;;;1.80;1.00;;;9.80;81.70;;;;;;5095927;28;20024;-78
2021/09/05 06:11:41;;;;;;;1.23;1.02;;;10.00;80.50;;;;;;5095300;28;20044;-78
2021/09/05 06:14:07;;;;;;;3.03;0.93;;;10.00;79.90;;;;;;5095615;28;20036;-79
2021/09/05 06:16:33;;;;;;;1.20;1.10;;;10.00;79.80;;;;;;5095308;28;20028;-78
2021/09/05 06:19:00;;;;;;;1.97;1.27;;;10.20;79.60;;;;;;5095350;28;20016;-77
2021/09/05 06:21:26;;;;;;;2.13;1.20;;;10.90;78.70;;;;;;5095694;28;20103;-79
2021/09/05 06:23:52;;;;;;;4.10;1.13;;;11.30;76.00;;;;;;5095828;28;20421;-80
2021/09/05 06:26:18;;;;;;;3.25;1.25;;;11.40;74.40;;;;;;5088606;28;20106;-79
2021/09/05 06:28:43;;;;;;;3.75;1.23;;;11.40;74.00;;;;;;5095299;28;20092;-80
2021/09/05 06:31:10;;;;;;;6.05;1.20;;;11.30;73.90;;;;;;5095229;28;20079;-81
2021/09/05 06:33:36;;;;;;;4.93;1.85;;;11.00;74.60;;;;;;5093859;28;20031;-82
2021/09/05 06:36:02;;;;;;;3.47;1.40;;;11.10;75.40;;;;;;5095186;28;20021;-79
2021/09/05 06:38:27;;;;;;;2.75;1.50;;;11.00;75.20;;;;;;5095276;28;20530;-78
2021/09/05 06:40:53;;;;;;;7.13;2.25;;;10.90;75.70;;;;;;5094936;28;20081;-80
2021/09/05 06:43:19;;;;;;;1.33;1.20;;;10.70;75.50;;;;;;5095118;28;20032;-82
2021/09/05 06:45:45;;;;;;;2.53;1.23;;;10.60;75.60;;;;;;5095307;28;20127;-81
2021/09/05 06:48:11;;;;;;;4.55;1.40;;;10.60;75.30;;;;;;5095317;28;20484;-79
2021/09/05 06:50:37;;;;;;;2.80;1.52;;;10.60;75.20;;;;;;5095068;28;20042;-79
2021/09/05 06:53:02;;;;;;;1.98;1.33;;;10.40;75.50;;;;;;5095046;28;20095;-81
2021/09/05 06:55:29;;;;;;;2.13;1.52;;;10.20;76.60;;;;;;5094923;28;20024;-79
2021/09/05 06:57:54;;;;;;;2.90;1.55;;;10.10;78.70;;;;;;5094899;28;20027;-78
2021/09/05 07:00:20;;;;;;;7.00;1.60;;;9.90;79.90;;;;;;5094591;28;20385;-79
2021/09/05 07:02:46;;;;;;;4.15;1.98;;;9.80;81.70;;;;;;5094515;28;20433;-79
2021/09/05 07:05:12;;;;;;;5.68;1.92;;;9.60;83.20;;;;;;5101522;28;20047;-81
2021/09/05 07:07:38;;;;;;;4.95;1.63;;;9.60;82.80;;;;;;5101784;28;20534;-77
2021/09/05 07:10:04;;;;;;;6.18;1.65;;;9.50;81.30;;;;;;5093855;28;20028;-78
2021/09/05 07:12:30;;;;;;;4.78;1.30;;;9.30;81.10;;;;;;5094601;28;20028;-78
2021/09/05 07:14:56;;;;;;;2.28;1.08;;;9.10;81.70;;;;;;5093426;28;20024;-78
2021/09/05 07:17:22;;;;;;;2.67;1.50;;;9.00;82.10;;;;;;5094821;28;20017;-78
2021/09/05 07:19:48;;;;;;;3.65;1.60;;;9.10;82.50;;;;;;5094685;28;20020;-78
2021/09/05 07:22:13;;;;;;;1.58;1.02;;;9.10;82.50;;;;;;5094961;28;20028;-78
2021/09/05 07:24:39;;;;;;;1.95;1.17;;;9.10;82.40;;;;;;5095320;28;20024;-78
2021/09/05 07:27:05;;;;;;;2.08;1.40;;;9.00;82.50;;;;;;5094280;28;20024;-81
2021/09/05 07:29:31;;;;;;;3.67;1.60;;;8.90;83.20;;;;;;5094369;28;20413;-80
2021/09/05 07:31:57;;;;;;;3.17;1.48;;;8.90;83.10;;;;;;5094675;28;20146;-78
2021/09/05 07:34:23;;;;;;;3.40;1.83;;;8.80;83.40;;;;;;5095917;28;20016;-79
2021/09/05 07:36:49;;;;;;;3.30;1.87;;;8.80;83.90;;;;;;5094556;28;20024;-79
2021/09/05 07:39:15;;;;;;;10.50;2.15;;;8.70;84.50;;;;;;5094736;28;20035;-80
2021/09/05 07:41:41;;;;;;;3.13;1.88;;;8.70;85.00;;;;;;5094892;28;20554;-77
2021/09/05 07:44:07;;;;;;;1.88;1.40;;;8.60;85.40;;;;;;5093256;28;20028;-77
2021/09/05 07:46:33;;;;;;;3.08;1.90;;;8.60;85.90;;;;;;5095550;28;20012;-78
2021/09/05 07:48:58;;;;;;;1.90;1.67;;;8.60;86.00;;;;;;5094198;28;20020;-79
2021/09/05 07:51:24;;;;;;;2.00;1.55;;;8.60;85.90;;;;;;5093775;28;20075;-79
2021/09/05 07:53:54;;;;;;;5.05;2.05;;;8.60;85.90;;;;;;5095601;28;20023;-80
2021/09/05 07:56:21;;;;;;;5.45;2.17;;;8.70;85.70;;;;;;5093273;28;20027;-78
2021/09/05 07:58:47;;;;;;;2.83;2.05;;;8.70;85.70;;;;;;5093770;28;20412;-78
2021/09/05 08:01:16;;;;;;;2.58;1.85;;;8.80;85.70;;;;;;5093548;28;20081;-79
2021/09/05 08:03:42;;;;;;;2.85;1.90;;;8.90;85.10;;;;;;5093695;28;20567;-79
2021/09/05 08:06:08;;;;;;;3.22;1.95;;;8.80;84.90;;;;;;5092274;28;20119;-79
2021/09/05 08:08:37;;;;;;;2.45;1.75;;;8.80;85.10;;;;;;5092666;28;20102;-78
2021/09/05 08:11:04;;;;;;;1.92;1.10;;;8.90;85.30;;;;;;5092109;28;20047;-78
2021/09/05 08:13:31;;;;;;;3.95;2.17;;;8.90;85.30;;;;;;5093372;28;20016;-78
2021/09/05 08:16:00;;;;;;;5.28;2.30;;;8.80;85.90;;;;;;5093287;28;20028;-77
2021/09/05 08:18:31;;;;;;;4.72;2.22;;;8.80;86.30;;;;;;5093087;28;20016;-78
2021/09/05 08:20:58;;;;;;;3.78;2.08;;;8.90;86.70;;;;;;5092048;28;20047;-82
2021/09/05 08:23:24;;;;;;;3.27;2.03;;;9.20;85.60;;;;;;5090564;28;20020;-78
2021/09/05 08:25:50;;;;;;;5.25;2.30;;;9.40;84.80;;;;;;5090404;28;20300;-78
2021/09/05 08:28:16;;;;;;;3.85;2.10;;;9.50;83.10;;;;;;5090966;28;20020;-80
2021/09/05 08:30:43;;;;;;;2.63;1.85;;;9.60;83.10;;;;;;5084266;28;20392;-80
2021/09/05 08:33:10;;;;;;;5.05;2.17;;;9.70;83.10;;;;;;5092926;28;20020;-77
2021/09/05 08:35:37;;;;;;;5.20;2.87;;;9.90;82.90;;;;;;5092515;28;20032;-80
2021/09/05 08:38:03;;;;;;;5.47;2.38;;;10.00;82.20;;;;;;5092867;28;20737;-78
2021/09/05 08:40:29;;;;;;;4.93;1.98;;;10.10;81.70;;;;;;5093068;28;20032;-80
2021/09/05 08:42:56;;;;;;;4.28;2.38;;;10.10;81.00;;;;;;5089427;28;20013;-78
2021/09/05 08:45:22;;;;;;;4.93;2.13;;;10.10;81.10;;;;;;5091832;28;20504;-78
2021/09/05 08:47:48;;;;;;;3.85;1.88;;;10.20;80.60;;;;;;5091937;28;20028;-77
2021/09/05 08:50:15;;;;;;;3.67;1.65;;;10.20;80.10;;;;;;5091851;28;20031;-79
2021/09/05 08:52:41;;;;;;;5.47;1.50;;;10.10;79.60;;;;;;5092873;28;20069;-77
2021/09/05 08:55:07;;;;;;;4.57;1.65;;;9.90;79.60;;;;;;5090186;28;20028;-77
2021/09/05 08:57:34;;;;;;;2.40;1.65;;;9.90;80.20;;;;;;5092830;28;20028;-80
2021/09/05 09:00:00;;;;;;;4.27;1.50;;;9.80;80.20;;;;;;5092273;28;20023;-79
2021/09/05 09:02:50;;;;;;;4.70;1.75;;;9.80;80.60;;;;;;5092498;28;20524;-78
2021/09/05 09:05:28;;;;;;;3.03;1.98;;;9.80;80.80;;;;;;5079288;28;20054;-77
2021/09/05 09:07:59;;;;;;;2.25;1.88;;;9.70;80.90;;;;;;5092249;28;20024;-79
2021/09/05 09:10:24;;;;;;;2.25;1.70;;;9.60;81.10;;;;;;5092516;28;20497;-78
2021/09/05 09:12:50;;;;;;;4.72;2.17;;;9.40;80.30;;;;;;5092529;28;20016;-78
2021/09/05 09:15:21;;;;;;;3.22;1.60;;;9.30;81.00;;;;;;5080886;28;20099;-80
2021/09/05 09:18:05;;;;;;;3.35;1.50;;;9.30;81.60;;;;;;5086738;28;20024;-79
2021/09/05 09:20:37;;;;;;;2.20;1.45;;;9.30;81.70;;;;;;5081404;28;20012;-82
2021/09/05 09:23:13;;;;;;;1.98;1.27;;;9.30;80.50;;;;;;5092413;28;20028;-80
2021/09/05 09:25:51;;;;;;;1.83;1.15;;;9.30;80.00;;;;;;5087571;28;20081;-79
2021/09/05 09:28:22;;;;;;;;;;;9.50;79.00;;;;;;5093733;28;20039;-81
2021/09/05 09:30:48;;;;;;;5.85;1.80;;;9.60;79.20;;;;;;5093944;28;20124;-81
2021/09/05 09:33:22;;;;;;;2.22;1.58;;;9.80;78.50;;;;;;5092605;28;20023;-80
2021/09/05 09:35:53;;;;;;;2.50;1.63;;;10.00;78.90;;;;;;5091651;28;20024;-83
2021/09/05 09:38:21;;;;;;;1.90;1.50;;;10.20;77.10;;;;;;5095406;28;20024;-82
2021/09/05 09:40:47;;;;;;;;;;;10.40;76.80;;;;;;5092245;28;20028;-82
2021/09/05 09:43:17;;;;;;;2.30;1.63;;;10.60;77.20;;;;;;5085558;28;19962;-82
2021/09/05 09:46:17;;;;;;;7.35;1.60;;;10.90;75.90;;;;;;5073173;28;20020;-82
2021/09/05 09:48:48;;;;;;;2.30;1.73;;;11.40;75.40;;;;;;5083718;28;20545;-79
2021/09/05 09:51:15;;;;;;;2.85;1.80;;;12.10;74.30;;;;;;5092933;28;20032;-78
2021/09/05 09:53:42;;;;;;;1.85;1.58;;;12.70;73.10;;;;;;5091260;28;20022;-81
2021/09/05 09:56:11;;;;;;;4.55;1.73;;;13.00;71.50;;;;;;5092138;28;20468;-81
2021/09/05 09:58:37;;;;;;;4.20;1.60;;;13.30;69.20;;;;;;5092067;28;20032;-79
2021/09/05 10:01:04;;;;;;;1.67;1.40;;;13.00;68.30;;;;;;5092009;28;20028;-80
2021/09/05 10:03:31;;;;;;;4.43;1.70;;;12.60;68.20;;;;;;5090917;28;20532;-78
2021/09/05 10:06:02;;;;;;;3.30;1.63;;;12.10;69.40;;;;;;5090923;28;20021;-81
2021/09/05 10:08:32;;;;;;;1.77;1.50;;;11.60;70.90;;;;;;5091778;28;20035;-79
2021/09/05 10:10:59;;;;;;;3.20;1.58;;;11.30;72.20;;;;;;5091858;28;20044;-81
2021/09/05 10:13:33;;;;;;;2.73;1.53;;;11.00;73.40;;;;;;5092039;28;20035;-81
2021/09/05 10:16:00;;;;;;;5.05;1.90;;;10.80;73.80;;;;;;5088419;28;20017;-78
2021/09/05 10:18:28;;;;;;;2.60;1.58;;;10.60;75.60;;;;;;5089909;28;20427;-80
2021/09/05 10:20:57;;;;;;;6.38;5.35;;;10.70;75.40;;;;;;5082392;28;20047;-78
2021/09/05 10:23:34;;;;;;;4.10;1.90;;;11.00;75.40;;;;;;5106821;28;20024;-78
2021/09/05 10:26:11;;;;;;;1.90;1.65;;;11.30;73.90;;;;;;5095601;28;20019;-78
2021/09/05 10:28:39;;;;;;;1.95;1.75;;;11.40;72.30;;;;;;5094599;28;20039;-85
2021/09/05 10:31:07;;;;;;;2.13;1.88;;;11.60;71.80;;;;;;5096389;28;20024;-83
2021/09/05 10:33:40;;;;;;;3.55;2.00;;;11.80;71.70;;;;;;5091070;28;20024;-82
2021/09/05 10:36:12;;;;;;;4.82;2.00;;;12.10;71.20;;;;;;5096066;28;20534;-83
2021/09/05 10:38:40;;;;;;;5.10;2.17;;;12.40;70.60;;;;;;5089845;28;20024;-82
2021/09/05 10:41:25;;;;;;;2.78;1.75;;;12.70;69.40;;;;;;5083793;28;20126;-86
2021/09/05 10:44:02;;;;;;;2.65;1.75;;;12.90;68.10;;;;;;5089841;28;20074;-85
2021/09/05 10:46:39;;;;;;;3.70;2.20;;;13.00;67.40;;;;;;5077336;28;20028;-86
2021/09/05 10:49:06;;;;;;;5.65;1.80;;;12.80;67.00;;;;;;5084473;28;20033;-85
2021/09/05 10:51:43;;;;;;;2.53;2.13;;;12.50;67.00;;;;;;5093782;28;20486;-85
2021/09/05 10:54:11;;;;;;;6.38;2.30;;;12.40;67.30;;;;;;5094415;28;20024;-82
2021/09/05 10:56:43;;;;;;;4.47;2.60;;;12.40;67.60;;;;;;5094300;28;20497;-79
2021/09/05 10:59:16;;;;;;;2.70;1.83;;;12.60;67.60;;;;;;5096629;28;20039;-84
2021/09/05 11:01:48;;;;;;;3.85;2.00;;;12.80;66.30;;;;;;5095979;28;20031;-82
2021/09/05 11:04:16;;;;;;;5.68;2.40;;;12.90;65.10;;;;;;5092924;28;20020;-82
2021/09/05 11:06:53;;;;;;;4.78;2.33;;;12.90;65.50;;;;;;5090944;28;20043;-84
2021/09/05 11:09:19;;;;;;;3.97;2.33;;;13.10;65.40;;;;;;5076528;28;20046;-83
2021/09/05 11:12:04;;;;;;;4.55;2.30;;;13.00;64.80;;;;;;5093923;28;20048;-86
2021/09/05 11:14:40;;;;;;;3.25;2.00;;;12.70;65.20;;;;;;5098260;28;20040;-83
2021/09/05 11:17:09;;;;;;;3.40;2.47;;;12.40;66.40;;;;;;5090543;28;20024;-79
2021/09/05 11:19:43;;;;;;;4.07;2.63;;;12.10;67.70;;;;;;5087661;28;20024;-79
2021/09/05 11:22:11;;;;;;;8.63;3.15;;;12.00;68.80;;;;;;5083331;28;20032;-79
2021/09/05 11:24:37;;;;;;;4.53;2.50;;;11.90;69.60;;;;;;5089684;28;20024;-81
2021/09/05 11:27:05;;;;;;;6.75;2.25;;;11.80;69.90;;;;;;5094957;28;20020;-82
2021/09/05 11:29:31;;;;;;;;;;;11.90;69.80;;;;;;5095300;28;20023;-80
2021/09/05 11:32:08;;;;;;;5.15;2.47;;;12.00;70.40;;;;;;5093705;28;19908;-79
2021/09/05 11:34:35;;;;;;;5.15;2.10;;;12.10;69.30;;;;;;5095180;28;20062;-80
2021/09/05 11:37:02;;;;;;;5.03;2.08;;;12.30;69.00;;;;;;5094233;28;20024;-80
2021/09/05 11:39:28;;;;;;;2.63;1.73;;;12.70;67.90;;;;;;5094624;28;20430;-79
2021/09/05 11:41:56;;;;;;;2.55;1.85;;;13.00;65.20;;;;;;5094167;28;20055;-80
2021/09/05 11:44:35;;;;;;;3.83;2.63;;;13.20;64.80;;;;;;5094555;28;20024;-81
2021/09/05 11:47:12;;;;;;;4.53;2.58;;;13.40;64.30;;;;;;5094037;28;20132;-81
2021/09/05 11:49:53;;;;;;;5.72;3.55;;;13.40;64.60;;;;;;5092220;28;20132;-80
2021/09/05 11:52:20;;;;;;;2.90;2.00;;;13.40;64.60;;;;;;5093502;28;20032;-80
2021/09/05 11:54:57;;;;;;;2.85;2.03;;;13.20;63.60;;;;;;5094215;28;20024;-82
2021/09/05 11:57:24;;;;;;;5.50;2.30;;;13.00;64.50;;;;;;5088917;28;20024;-82
2021/09/05 11:59:53;;;;;;;5.78;2.05;;;13.00;65.30;;;;;;5093122;28;20020;-82
2021/09/05 12:02:36;;;;;;;5.40;2.80;;;13.00;64.90;;;;;;5094826;28;20036;-80
2021/09/05 12:05:05;;;;;;;4.50;3.35;;;12.90;64.80;;;;;;5092671;28;20020;-82
2021/09/05 12:07:37;;;;;;;2.42;1.80;;;12.80;64.40;;;;;;5094980;28;20098;-88
2021/09/05 12:10:15;;;;;;;4.43;2.10;;;12.70;64.10;;;;;;5093703;28;20032;-86
2021/09/05 12:12:42;;;;;;;3.63;2.50;;;12.80;64.10;;;;;;5094539;28;20048;-83
2021/09/05 12:15:12;;;;;;;4.53;2.83;;;12.80;63.30;;;;;;5093686;28;20028;-82
2021/09/05 12:17:43;;;;;;;4.65;2.58;;;12.90;63.90;;;;;;5092632;28;20028;-81
2021/09/05 12:20:09;;;;;;;6.57;2.42;;;13.00;64.00;;;;;;5095096;28;20020;-85
2021/09/05 12:22:51;;;;;;;3.45;2.33;;;13.10;63.40;;;;;;5094253;28;20063;-82
2021/09/05 12:25:30;;;;;;;4.47;3.60;;;13.30;63.40;;;;;;5096265;28;20017;-83
2021/09/05 12:28:07;;;;;;;4.15;2.03;;;13.40;62.50;;;;;;5099839;28;20036;-83
2021/09/05 12:30:34;;;;;;;;;;;13.50;62.30;;;;;;5076768;28;20028;-85
2021/09/05 12:33:12;;;;;;;4.78;2.45;;;13.40;62.90;;;;;;5089295;28;20395;-85
2021/09/05 12:36:04;;;;;;;3.17;2.10;;;13.40;62.70;;;;;;5094562;28;20067;-82
2021/09/05 12:38:31;;;;;;;2.67;1.98;;;13.40;63.00;;;;;;5084696;28;20107;-84
2021/09/05 12:41:10;;;;;;;3.03;1.70;;;13.50;62.90;;;;;;5090754;28;20405;-83
2021/09/05 12:43:59;;;;;;;2.63;1.85;;;13.60;62.30;;;;;;5092727;28;20028;-84
2021/09/05 12:46:40;;;;;;;2.83;2.13;;;13.90;61.90;;;;;;5094853;28;20024;-83
2021/09/05 12:49:37;;;;;;;3.80;2.15;;;14.00;60.60;;;;;;5093500;28;20419;-83
2021/09/05 12:52:03;;;;;;;2.58;1.88;;;14.20;61.60;;;;;;5084153;28;20040;-83
2021/09/05 12:54:29;;;;;;;4.60;2.00;;;14.20;60.20;;;;;;5093313;28;20438;-83
2021/09/05 12:56:55;;;;;;;2.85;2.00;;;13.90;59.70;;;;;;5093409;28;20103;-84
2021/09/05 12:59:21;;;;;;;3.85;1.85;;;13.50;62.50;;;;;;5093996;28;20012;-86
2021/09/05 13:01:49;;;;;;;2.47;1.80;;;12.80;65.80;;;;;;5087772;28;20035;-85